Edwards Creek Valley, Nevada Weather observations

Data are for observation ending at time listed.
 Day   Time    Ave.   Ave.  Ave.  Vector   Max.   Stn.    Total    Solar   Ave.  
  of    of     Air    Rel.  Wind   Wind    Wind   Baro.  Precip.   Rad.    Soil  
Year   Day     Temp.  Hum.  Speed  Dir.    Gust   Pres.                    Temp. 
2016   (PST)    F      %     mph   deg.    mph     mb.     in.     W/m2     F   
------------------------------------------------------------------------------
 338    8:30   22.2    75    0.3   298      1.7    851     0.00     227     26.2
 338    8:40   24.0    68    1.0    11      3.3    851     0.00     250     26.3
 338    8:50   23.6    68    3.3    24      6.1    852     0.00     272     26.5
 338    9:00   23.6    69    2.9    61      5.0    852     0.00     294     26.7
 338    9:10   25.0    66    2.8   115      4.5    852     0.00     314     26.9
 338    9:20   26.4    61    0.9   117      3.4    852     0.00     333     27.1
 338    9:30   27.5    57    0.9   279      2.1    852     0.00     350     27.4
 338    9:40   28.0    56    1.0   300      2.5    852     0.00     367     27.6
 338    9:50   28.8    55    0.7   269      3.0    852     0.00     384     27.9
 338   10:00   31.5    50    0.4   223      2.3    852     0.00     401     28.1
 338   10:10   30.9    50    1.5   338      3.4    852     0.00     417     28.4
 338   10:20   31.0    49    1.3    36      3.3    852     0.00     432     28.6
 338   10:30   31.3    48    2.5    33      5.1    852     0.00     444     28.9
 338   10:40   31.7    47    1.9    62      4.7    852     0.00     455     29.1
 338   10:50   32.1    44    1.5    46      3.9    852     0.00     465     29.2
 338   11:00   32.8    43    2.0   357      4.8    851     0.00     473     29.4
 338   11:10   33.4    44    2.8    38      4.7    852     0.00     480     29.6
 338   11:20   33.9    42    2.4    32      5.8    852     0.00     485     29.7
 338   11:30   34.7    40    2.4    25      5.2    852     0.00     488     29.8
 338   11:40   35.3    38    3.2    61      6.7    852     0.00     490     29.9
 338   11:50   35.3    38    3.2    28      6.1    851     0.00     490     30.1
 338   12:00   35.6    37    1.8   359      3.7    851     0.00     489     30.2
 338   12:10   36.4    36    2.1   325      4.8    851     0.00     485     30.3
 338   12:20   36.7    38    2.3    18      4.0    851     0.00     482     30.4
 338   12:30   37.4    36    1.3   356      3.4    851     0.00     476     30.4
 338   12:40   38.0    35    2.2    21      4.0    850     0.00     469     30.5
 338   12:50   38.7    33    1.5    87      3.5    850     0.00     459     30.6
 338   13:00   39.5    30    2.1     4      4.4    851     0.00     449     30.7
 338   13:10   39.4    30    2.7   301      4.8    851     0.00     437     30.8
 338   13:20   40.2    30    1.2    84      3.5    851     0.00     423     30.8
 338   13:30   40.7    29    2.2    34      4.5    851     0.00     408     30.9
 338   13:40   41.1    28    2.5    25      5.0    851     0.00     392     31.0
 338   13:50   41.2    28    3.0    12      5.2    851     0.00     374     31.0
 338   14:00   41.4    27    3.6    45      6.9    851     0.00     356     31.1
 338   14:10   42.1    27    2.8    54      4.8    851     0.00     336     31.1
 338   14:20   41.9    26    2.1    38      5.4    851     0.00     315     31.2
 338   14:30   41.9    26    1.8   355      3.9    851     0.00     293     31.3
 338   14:40   42.9    26    2.4    91      3.9    850     0.00     269     31.3
 338   14:50   43.4    25    1.7   115      3.1    851     0.00     246     31.4
 338   15:00   43.4    25    0.9    47      2.9    851     0.00     221     31.4
 338   15:10   43.4    25    0.9    19      2.6    852     0.00     197     31.5
 338   15:20   43.0    26    1.9    25      4.2    852     0.00     172     31.5
 338   15:30   42.7    27    2.4    21      6.1    852     0.00     148     31.5
 338   15:40   41.4    34    4.6    25      6.6    851     0.00     118     31.5
 338   15:50   39.5    40    4.1    13      5.5    851     0.00      84     31.5
 338   16:00   37.7    43    3.6    15      5.0    851     0.00      41     31.5
 338   16:10   36.2    46    3.2    36      3.9    851     0.00      15     31.4
 338   16:20   34.7    48    3.0    34      3.4    851     0.00      12     31.4
 338   16:30   33.7    50    1.8    57      2.6    851     0.00       8     31.4
 338   16:40   33.0    50    0.5    92      1.9    851     0.00       5     31.4
 338   16:50   31.6    52    3.2   144      4.6    851     0.00       1     31.4
 338   17:00   29.4    57    4.0   148      5.0    851     0.00       0     31.4
 338   17:10   27.0    62    3.8   145      4.5    851     0.00       0     31.4
 338   17:20   26.4    64    4.3   144      5.1    851     0.00       0     31.3
 338   17:30   26.1    66    3.7   153      5.5    850     0.00       0     31.3
 338   17:40   25.8    68    3.5   168      5.4    851     0.00       0     31.3
 338   17:50   25.6    68    1.9   189      4.9    851     0.00       0     31.3
 338   18:00   25.8    67    2.4   171      4.2    851     0.00       0     31.2
 338   18:10   24.7    69    2.8   171      5.0    851     0.00       0     31.2
 338   18:20   24.6    69    2.8   163      4.2    851     0.00       0     31.1
 338   18:30   23.9    70    2.0   210      3.0    851     0.00       0     31.1
 338   18:40   23.4    73    2.4   219      3.1    851     0.00       0     31.0
 338   18:50   23.5    72    3.1   214      3.6    851     0.00       0     31.0
 338   19:00   23.0    72    1.8   197      3.5    851     0.00       0     30.9
 338   19:10   21.6    74    2.4   200      4.0    851     0.00       0     30.8
 338   19:20   21.0    77    1.5   186      3.9    851     0.00       0     30.8
 338   19:30   20.7    77    2.4   183      4.5    851     0.00       0     30.7
 338   19:40   20.1    78    2.5   182      4.2    851     0.00       0     30.6
 338   19:50   22.4    73    1.2   192      2.6    851     0.00       0     30.6
 338   20:00   21.4    75    2.1   200      3.9    851     0.00       0     30.5
 338   20:10   20.7    76    1.5   193      4.4    851     0.00       0     30.4
 338   20:20   20.4    77    1.3   177      4.2    851     0.00       0     30.3
 338   20:30   21.3    76    3.1   165      4.7    851     0.00       0     30.2
 338   20:40   20.9    76    4.1   156      5.4    851     0.00       0     30.1
 338   20:50   21.0    75    2.2   178      5.2    851     0.00       0     30.0
 338   21:00   20.0    76    1.3   184      2.8    851     0.00       0     29.9
 338   21:10   18.4    78    1.7   204      2.7    851     0.00       0     29.8
 338   21:20   17.3    82    1.8   218      3.3    850     0.00       0     29.7
 338   21:30   17.3    84    2.5   221      3.5    851     0.00       0     29.7
 338   21:40   17.1    85    2.2   203      3.7    850     0.00       0     29.6
 338   21:50   17.3    85    1.9   246      3.8    851     0.00       0     29.5
 338   22:00   16.9    85    1.1   223      2.4    850     0.00       0     29.4
 338   22:10   17.1    85    1.4   184      3.0    851     0.00       0     29.3
 338   22:20   17.1    85    2.9   160      5.4    851     0.00       0     29.2
 338   22:30   17.8    83    3.9   144      4.7    851     0.00       0     29.1
 338   22:40   18.5    80    1.6   204      4.0    851     0.00       0     29.0
 338   22:50   17.4    82    1.5   261      2.6    850     0.00       0     28.9
 338   23:00   16.4    85    2.3   209      3.7    850     0.00       0     28.8
 338   23:10   16.1    86    1.7   181      3.9    850     0.00       0     28.8
 338   23:20   16.4    87    1.4   168      3.7    850     0.00       0     28.6
 338   23:30   16.2    86    1.4   161      2.3    850     0.00       0     28.5
 338   23:40   16.2    86    0.5   170      2.9    850     0.00       0     28.5
 338   23:50   15.8    85    1.7   298      4.9    850     0.00       0     28.4
 339    0:00   14.7    86    0.9   210      2.3    850     0.00       0     28.3
 339    0:10   14.5    87    2.3   125      3.9    850     0.00       0     28.2
 339    0:20   14.8    87    1.3   152      2.6    850     0.00       0     28.1
 339    0:30   15.0    86    1.1   195      2.5    850     0.00       0     28.0
 339    0:40   14.6    86    1.5   193      3.5    850     0.00       0     27.9
 339    0:50   14.8    86    1.8   190      3.5    850     0.00       0     27.9
 339    1:00   14.7    86    2.1   205      3.3    850     0.00       0     27.8
 339    1:10   14.1    86    1.6   210      3.3    850     0.00       0     27.7
 339    1:20   13.6    87    2.4   206      3.7    850     0.00       0     27.6
 339    1:30   13.1    87    1.5   204      2.6    850     0.00       0     27.5
 339    1:40   13.2    88    2.1   170      4.2    849     0.00       0     27.4
 339    1:50   14.2    88    3.1   157      4.8    850     0.00       0     27.3
 339    2:00   15.1    88    2.5   136      4.7    850     0.00       0     27.2
 339    2:10   15.5    87    1.6   194      2.6    849     0.00       0     27.2
 339    2:20   15.9    86    2.6   237      3.7    849     0.00       0     27.1
 339    2:30   16.0    87    2.2   244      3.6    849     0.00       0     27.1
 339    2:40   16.8    86    2.0   240      3.4    849     0.00       0     27.0
 339    2:50   17.3    86    0.7   197      2.0    849     0.00       0     27.0
 339    3:00   17.6    86    2.3   117      4.3    849     0.00       0     27.1
 339    3:10   18.2    86    3.0   114      3.9    849     0.00       0     27.1
 339    3:20   18.7    86    1.4    74      2.3    848     0.00       0     27.1
 339    3:30   18.6    86    0.2   256      1.0    848     0.00       0     27.1
 339    3:40   18.6    86    0.8   293      2.5    848     0.00       0     27.2
 339    3:50   18.2    87    0.3   309      1.6    848     0.00       0     27.2
 339    4:00   18.0    87    0.2   302      1.2    848     0.00       0     27.2
 339    4:10   17.7    87    2.0   205      3.6    848     0.00       0     27.2
 339    4:20   17.4    87    1.1   186      2.8    848     0.00       0     27.1
 339    4:30   16.7    86    2.3   129      3.2    847     0.00       0     27.1
 339    4:40   16.2    87    0.7    47      2.3    848     0.00       0     27.0
 339    4:50   17.3    87    0.5    68      1.2    847     0.00       0     27.0
 339    5:00   17.2    86    1.4   116      2.3    847     0.00       0     26.9
 339    5:10   16.9    87    2.7   125      4.7    847     0.00       0     26.9
 339    5:20   16.6    87    0.8   346      3.3    847     0.00       0     26.8
 339    5:30   15.2    87    1.7   270      3.1    847     0.00       0     26.8
 339    5:40   15.0    88    1.9   237      3.7    847     0.00       0     26.7
 339    5:50   14.2    88    0.9   263      3.2    847     0.00       0     26.6
 339    6:00   14.0    88    0.4   216      3.4    847     0.00       0     26.6
 339    6:10   14.1    88    2.8   119      5.3    847     0.00       0     26.5
 339    6:20   14.4    88    1.4    29      2.3    848     0.00       0     26.4
 339    6:30   13.5    87    1.5   289      3.6    848     0.00       0     26.4
 339    6:40   12.8    88    1.5   258      3.3    847     0.00       0     26.3
 339    6:50   13.0    89    1.4   226      2.4    847     0.00       3     26.3
 339    7:00   13.7    88    1.6   237      2.6    847     0.00       7     26.2
 339    7:10   13.2    88    1.1   241      2.9    847     0.00      13     26.1
 339    7:20   13.5    88    2.0    55      4.8    847     0.00      25     26.1
 339    7:30   13.7    88    3.5   118      5.0    847     0.00      45     26.0
 339    7:40   16.1    87    2.2   111      3.9    847     0.00      72     26.0
 339    7:50   18.8    85    1.8   131      3.6    847     0.00      94     25.9
 339    8:00   20.8    82    0.5   152      3.2    847     0.00      85     26.0
 339    8:10   21.4    80    1.0   271      3.1    847     0.00      87     26.1
 339    8:20   20.6    81    2.4   263      3.6    847     0.00      70     26.2

Return to Carson Sink graphs page.


Western Regional Climate Center,wrcc@dri.edu